Time;durP1;ratioP1;P1;durP2;ratioP2;P2;SDS_P1;SDS_P2;PMS_P1;PMS_P2;Temp;Humidity;BMP_temperature;BMP_pressure;BME280_temperature;BME280_humidity;BME280_pressure;Samples;Min_cycle;Max_cycle;Signal;HPM_P1;HPM_P2
2021/03/13 00:01:18;;;;;;;2.97;2.60;;;5.20;99.90;;;;;;5125148;28;20587;-87
2021/03/13 00:03:47;;;;;;;2.72;2.15;;;5.40;99.90;;;;;;5121896;28;20229;-87
2021/03/13 00:06:14;;;;;;;2.95;2.00;;;5.40;99.90;;;;;;5119201;28;20427;-86
2021/03/13 00:08:40;;;;;;;3.33;2.78;;;5.20;99.90;;;;;;5120132;28;20208;-85
2021/03/13 00:11:09;;;;;;;3.35;2.67;;;5.30;99.90;;;;;;5128778;28;20197;-82
2021/03/13 00:13:36;;;;;;;2.83;1.92;;;5.80;99.90;;;;;;5126215;28;20229;-85
2021/03/13 00:16:04;;;;;;;2.20;1.90;;;5.50;99.90;;;;;;5125155;28;20629;-86
2021/03/13 00:18:31;;;;;;;1.30;1.30;;;5.40;99.90;;;;;;5123311;28;20205;-88
2021/03/13 00:20:57;;;;;;;2.50;1.83;;;5.00;99.90;;;;;;5116723;28;20632;-88
2021/03/13 00:23:25;;;;;;;1.40;1.30;;;5.50;99.90;;;;;;5118105;28;20217;-86
2021/03/13 00:25:52;;;;;;;3.13;1.60;;;5.30;99.90;;;;;;5119394;28;20674;-86
2021/03/13 00:28:19;;;;;;;1.98;1.80;;;5.30;99.90;;;;;;5119450;28;20201;-86
2021/03/13 00:30:47;;;;;;;1.92;1.67;;;5.30;99.90;;;;;;5119770;28;20229;-87
2021/03/13 00:33:14;;;;;;;2.15;1.70;;;5.20;99.90;;;;;;5120407;28;20651;-86
2021/03/13 00:35:42;;;;;;;1.60;1.50;;;5.40;99.90;;;;;;5120667;28;20200;-88
2021/03/13 00:38:10;;;;;;;3.53;1.90;;;5.40;99.90;;;;;;5117273;28;20204;-88
2021/03/13 00:40:42;;;;;;;3.70;1.45;;;5.30;99.90;;;;;;5116788;28;20224;-88
2021/03/13 00:43:09;;;;;;;2.10;2.00;;;5.50;99.90;;;;;;5117784;28;20256;-88
2021/03/13 00:45:37;;;;;;;3.13;1.88;;;5.50;99.90;;;;;;5116509;28;20248;-89
2021/03/13 00:48:04;;;;;;;1.80;1.50;;;5.50;99.90;;;;;;5116586;28;20205;-89
2021/03/13 00:50:32;;;;;;;1.60;1.50;;;5.20;99.90;;;;;;5116393;28;20616;-88
2021/03/13 00:52:59;;;;;;;3.22;1.45;;;5.70;99.90;;;;;;5119191;28;20263;-89
2021/03/13 00:55:26;;;;;;;2.00;1.83;;;5.50;99.90;;;;;;5120969;28;20256;-88
2021/03/13 00:57:53;;;;;;;2.30;2.00;;;5.40;99.90;;;;;;5117081;28;20562;-83
2021/03/13 01:00:22;;;;;;;2.60;1.85;;;5.60;99.90;;;;;;5117273;28;20749;-83
2021/03/13 01:02:49;;;;;;;2.50;1.45;;;5.30;99.90;;;;;;5117574;28;20197;-83
2021/03/13 01:05:16;;;;;;;1.85;1.52;;;5.50;99.90;;;;;;5119485;28;20197;-84
2021/03/13 01:07:44;;;;;;;1.83;1.73;;;5.50;99.90;;;;;;5120141;28;20200;-81
2021/03/13 01:10:13;;;;;;;4.18;1.70;;;5.50;99.90;;;;;;5116878;28;20181;-82
2021/03/13 01:12:40;;;;;;;1.83;1.73;;;5.70;99.90;;;;;;5116392;28;20215;-81
2021/03/13 01:15:09;;;;;;;2.22;1.73;;;5.60;99.90;;;;;;5116803;28;20212;-82
2021/03/13 01:17:36;;;;;;;2.15;1.92;;;5.60;99.90;;;;;;5117140;28;20243;-81
2021/03/13 01:20:04;;;;;;;2.17;1.98;;;5.60;99.90;;;;;;5116661;28;20217;-82
2021/03/13 01:22:30;;;;;;;1.67;1.58;;;5.50;99.90;;;;;;5116996;28;20216;-82
2021/03/13 01:24:56;;;;;;;1.75;1.30;;;5.50;99.90;;;;;;5117061;28;20220;-82
2021/03/13 01:27:22;;;;;;;1.80;1.70;;;5.50;99.90;;;;;;5116862;28;20201;-83
2021/03/13 01:29:49;;;;;;;2.65;2.20;;;5.50;99.90;;;;;;5119711;28;20229;-82
2021/03/13 01:32:15;;;;;;;3.22;2.28;;;5.50;99.90;;;;;;5128535;28;20197;-81
2021/03/13 01:34:41;;;;;;;4.72;2.05;;;5.50;99.90;;;;;;5137307;28;20225;-82
2021/03/13 01:37:08;;;;;;;3.70;1.88;;;5.50;99.90;;;;;;5137854;28;20208;-83
2021/03/13 01:39:34;;;;;;;2.03;1.80;;;5.60;99.90;;;;;;5134032;28;20225;-83
2021/03/13 01:42:00;;;;;;;2.20;2.10;;;5.60;99.90;;;;;;5131117;28;20205;-82
2021/03/13 01:44:26;;;;;;;2.20;2.00;;;5.80;99.90;;;;;;5123569;28;20229;-83
2021/03/13 01:46:52;;;;;;;3.97;2.00;;;5.50;99.90;;;;;;5121184;28;20264;-82
2021/03/13 01:49:25;;;;;;;2.55;2.35;;;5.50;99.90;;;;;;5126037;28;20197;-83
2021/03/13 01:51:51;;;;;;;1.88;1.77;;;5.40;99.90;;;;;;5122197;28;20189;-82
2021/03/13 01:54:18;;;;;;;2.50;2.15;;;5.30;99.90;;;;;;5121620;28;20278;-83
2021/03/13 01:56:45;;;;;;;3.00;2.10;;;5.30;99.90;;;;;;5121429;28;20204;-82
2021/03/13 01:59:12;;;;;;;2.25;1.70;;;5.30;99.90;;;;;;5121207;28;20250;-82
2021/03/13 02:01:39;;;;;;;3.15;2.00;;;5.30;99.90;;;;;;5121234;28;20224;-82
2021/03/13 02:04:05;;;;;;;2.10;1.90;;;5.30;99.90;;;;;;5120824;28;20303;-83
2021/03/13 02:06:31;;;;;;;3.15;2.20;;;5.40;99.90;;;;;;5120844;28;20201;-82
2021/03/13 02:09:04;;;;;;;2.40;2.20;;;5.40;99.90;;;;;;5120925;28;20201;-83
2021/03/13 02:11:35;;;;;;;2.35;2.08;;;5.50;99.90;;;;;;5120914;28;20242;-83
2021/03/13 02:14:11;;;;;;;1.98;1.80;;;5.30;99.90;;;;;;5121049;28;20223;-83
2021/03/13 02:16:43;;;;;;;4.63;2.55;;;5.30;99.90;;;;;;5121166;28;20551;-83
2021/03/13 02:19:33;;;;;;;4.13;2.47;;;5.30;99.90;;;;;;5121954;28;20196;-82
2021/03/13 02:22:02;;;;;;;4.13;2.25;;;5.40;99.90;;;;;;5120073;28;20189;-82
2021/03/13 02:24:45;;;;;;;3.42;2.10;;;5.30;99.90;;;;;;5120393;28;20252;-83
2021/03/13 02:27:18;;;;;;;2.50;2.28;;;5.30;99.90;;;;;;5120303;28;20185;-82
2021/03/13 02:29:47;;;;;;;2.13;2.00;;;5.20;99.90;;;;;;5120568;28;20186;-83
2021/03/13 02:32:22;;;;;;;2.47;2.28;;;5.20;99.90;;;;;;5119559;28;20204;-82
2021/03/13 02:34:51;;;;;;;2.72;2.45;;;5.10;99.90;;;;;;5119728;28;20732;-83
2021/03/13 02:37:22;;;;;;;2.92;2.72;;;5.20;99.90;;;;;;5120620;28;20254;-82
2021/03/13 02:39:51;;;;;;;4.10;2.53;;;5.30;99.90;;;;;;5120385;28;20736;-82
2021/03/13 02:42:18;;;;;;;4.45;2.03;;;5.40;99.90;;;;;;5121452;28;20197;-82
2021/03/13 02:44:47;;;;;;;4.82;3.15;;;5.40;99.90;;;;;;5127041;28;20258;-82
2021/03/13 02:47:15;;;;;;;2.80;2.55;;;5.40;99.90;;;;;;5118516;28;20200;-82
2021/03/13 02:49:44;;;;;;;4.45;2.60;;;5.50;99.90;;;;;;5117836;28;20232;-82
2021/03/13 02:52:12;;;;;;;3.33;2.40;;;5.40;99.90;;;;;;5117711;28;20221;-82
2021/03/13 02:54:44;;;;;;;3.95;2.85;;;5.50;99.90;;;;;;5118025;28;20274;-82
2021/03/13 02:57:13;;;;;;;3.78;2.60;;;5.50;99.90;;;;;;5117788;28;20708;-80
2021/03/13 02:59:40;;;;;;;8.52;2.67;;;5.50;99.90;;;;;;5117724;28;20446;-80
2021/03/13 03:02:09;;;;;;;2.28;2.08;;;5.60;99.90;;;;;;5118152;28;20197;-80
2021/03/13 03:04:37;;;;;;;2.85;2.60;;;5.80;99.90;;;;;;5118502;28;20316;-81
2021/03/13 03:07:04;;;;;;;3.45;2.75;;;5.50;99.90;;;;;;5118148;28;20201;-80
2021/03/13 03:09:31;;;;;;;3.63;2.60;;;5.50;99.90;;;;;;5117896;28;20689;-80
2021/03/13 03:11:58;;;;;;;4.38;2.70;;;5.60;99.90;;;;;;5118303;28;20289;-80
2021/03/13 03:14:25;;;;;;;2.95;2.65;;;5.70;99.90;;;;;;5118087;28;20221;-80
2021/03/13 03:16:54;;;;;;;4.00;3.58;;;5.70;99.90;;;;;;5117972;28;20682;-80
2021/03/13 03:19:22;;;;;;;3.55;2.97;;;5.30;99.90;;;;;;5119031;28;20212;-81
2021/03/13 03:21:49;;;;;;;3.85;2.47;;;5.40;99.90;;;;;;5118153;28;20200;-80
2021/03/13 03:24:15;;;;;;;3.90;2.90;;;5.40;99.90;;;;;;5118359;28;20220;-80
2021/03/13 03:26:41;;;;;;;2.92;2.72;;;5.40;99.90;;;;;;5117904;28;20740;-81
2021/03/13 03:29:08;;;;;;;3.35;2.20;;;5.40;99.90;;;;;;5117363;28;20690;-80
2021/03/13 03:31:35;;;;;;;4.65;2.88;;;5.40;99.90;;;;;;5118526;28;20280;-81
2021/03/13 03:34:01;;;;;;;2.67;2.47;;;5.30;99.90;;;;;;5118506;28;20221;-81
2021/03/13 03:36:28;;;;;;;2.40;2.20;;;5.20;99.90;;;;;;5118450;28;20574;-81
2021/03/13 03:38:55;;;;;;;2.58;2.38;;;5.20;99.90;;;;;;5118689;28;20204;-81
2021/03/13 03:41:21;;;;;;;5.13;2.30;;;5.30;99.90;;;;;;5117883;28;20224;-80
2021/03/13 03:43:52;;;;;;;3.25;2.70;;;5.40;99.90;;;;;;5118190;28;20260;-81
2021/03/13 03:46:18;;;;;;;2.45;2.30;;;5.40;99.90;;;;;;5118048;28;20644;-80
2021/03/13 03:48:46;;;;;;;3.83;1.63;;;5.50;99.90;;;;;;5119949;28;20219;-80
2021/03/13 03:51:14;;;;;;;1.85;1.75;;;5.50;99.90;;;;;;5132291;28;20212;-79
2021/03/13 03:53:42;;;;;;;2.55;2.33;;;5.60;99.90;;;;;;5129268;28;20263;-79
2021/03/13 03:56:09;;;;;;;2.90;2.60;;;5.40;99.90;;;;;;5122774;28;20201;-80
2021/03/13 03:58:39;;;;;;;2.85;1.92;;;5.40;99.90;;;;;;5120025;28;20208;-80
2021/03/13 04:01:06;;;;;;;2.70;2.20;;;5.30;99.90;;;;;;5130626;28;20285;-80
2021/03/13 04:03:33;;;;;;;2.85;2.03;;;5.30;99.90;;;;;;5115864;28;20242;-80
2021/03/13 04:06:00;;;;;;;4.68;2.22;;;5.30;99.90;;;;;;5116044;28;20212;-80
2021/03/13 04:08:27;;;;;;;3.83;2.08;;;5.30;99.90;;;;;;5116199;28;20201;-80
2021/03/13 04:10:55;;;;;;;2.08;1.98;;;5.20;99.90;;;;;;5116602;28;20197;-81
2021/03/13 04:13:22;;;;;;;2.30;2.10;;;5.20;99.90;;;;;;5125092;28;20266;-80
2021/03/13 04:15:49;;;;;;;2.40;2.20;;;5.20;99.90;;;;;;5124373;28;20205;-80
2021/03/13 04:18:16;;;;;;;5.90;2.80;;;5.20;99.90;;;;;;5125128;28;20212;-81
2021/03/13 04:20:46;;;;;;;2.88;2.35;;;5.40;99.90;;;;;;5124527;28;20217;-81
2021/03/13 04:23:13;;;;;;;4.25;2.20;;;5.10;99.90;;;;;;5123545;28;20221;-81
2021/03/13 04:25:41;;;;;;;8.13;2.40;;;5.10;99.90;;;;;;5122887;28;20201;-81
2021/03/13 04:28:08;;;;;;;4.40;2.42;;;5.00;99.90;;;;;;5122093;28;20227;-81
2021/03/13 04:30:34;;;;;;;2.30;2.10;;;5.10;99.90;;;;;;5118557;28;20231;-80
2021/03/13 04:33:02;;;;;;;3.00;2.70;;;5.00;99.90;;;;;;5118232;28;20220;-81
2021/03/13 04:35:29;;;;;;;2.90;2.60;;;5.00;99.90;;;;;;5117646;28;20201;-81
2021/03/13 04:37:57;;;;;;;2.75;2.15;;;5.10;99.90;;;;;;5118065;28;20205;-81
2021/03/13 04:40:24;;;;;;;5.50;2.55;;;5.00;99.90;;;;;;5122913;28;20245;-80
2021/03/13 04:42:52;;;;;;;2.90;2.20;;;4.90;99.90;;;;;;5128816;28;20205;-80
2021/03/13 04:45:19;;;;;;;2.92;2.30;;;4.90;99.90;;;;;;5129063;28;20197;-79
2021/03/13 04:47:46;;;;;;;2.92;2.72;;;5.00;99.90;;;;;;5128155;28;20208;-80
2021/03/13 04:50:14;;;;;;;3.05;2.30;;;5.00;99.90;;;;;;5120327;28;20220;-80
2021/03/13 04:52:40;;;;;;;2.20;2.00;;;5.00;99.90;;;;;;5128633;28;20200;-81
2021/03/13 04:55:07;;;;;;;2.80;2.45;;;5.00;99.90;;;;;;5118915;28;20205;-81
2021/03/13 04:57:33;;;;;;;2.80;2.60;;;4.90;99.90;;;;;;5116871;28;20208;-80
2021/03/13 05:00:00;;;;;;;4.53;2.97;;;4.90;99.90;;;;;;5116988;28;20228;-80
2021/03/13 05:02:28;;;;;;;3.47;2.60;;;5.00;99.90;;;;;;5116572;28;20228;-80
2021/03/13 05:04:54;;;;;;;3.42;2.75;;;5.00;99.90;;;;;;5116936;28;20225;-79
2021/03/13 05:07:20;;;;;;;2.72;2.53;;;5.00;99.90;;;;;;5120311;28;20243;-80
2021/03/13 05:09:46;;;;;;;2.95;2.75;;;5.00;99.90;;;;;;5127897;28;20628;-79
2021/03/13 05:12:12;;;;;;;5.75;2.40;;;5.00;99.90;;;;;;5125099;28;20227;-80
2021/03/13 05:14:39;;;;;;;3.35;2.50;;;5.00;99.90;;;;;;5123942;28;20278;-80
2021/03/13 05:17:06;;;;;;;2.97;2.50;;;5.00;99.90;;;;;;5128815;28;20227;-80
2021/03/13 05:19:32;;;;;;;2.83;2.50;;;5.60;99.90;;;;;;5126554;28;20205;-81
2021/03/13 05:21:59;;;;;;;3.97;2.88;;;5.10;99.90;;;;;;5127156;28;20205;-80
2021/03/13 05:24:25;;;;;;;2.83;2.58;;;5.10;99.90;;;;;;5129038;28;20220;-80
2021/03/13 05:26:51;;;;;;;3.15;2.85;;;4.80;99.90;;;;;;5128623;28;20200;-81
2021/03/13 05:29:17;;;;;;;4.15;2.78;;;4.90;99.90;;;;;;5130029;28;20204;-79
2021/03/13 05:31:44;;;;;;;4.32;2.88;;;4.90;99.90;;;;;;5133309;28;20208;-79
2021/03/13 05:34:10;;;;;;;3.03;2.58;;;4.90;99.90;;;;;;5133933;28;20228;-79
2021/03/13 05:36:37;;;;;;;3.15;2.85;;;4.90;99.90;;;;;;5133034;28;20209;-80
2021/03/13 05:39:03;;;;;;;2.55;2.38;;;4.80;99.90;;;;;;5133804;28;20205;-79
2021/03/13 05:41:31;;;;;;;2.97;2.78;;;4.90;99.90;;;;;;5132243;28;20228;-79
2021/03/13 05:44:00;;;;;;;2.20;2.10;;;4.90;99.90;;;;;;5154774;22;20232;-78
2021/03/13 05:46:27;;;;;;;2.80;2.60;;;5.00;99.90;;;;;;5135369;28;20201;-78
2021/03/13 05:48:55;;;;;;;3.28;2.78;;;5.10;99.90;;;;;;5135526;28;20232;-78
2021/03/13 05:51:21;;;;;;;3.60;3.17;;;5.10;99.90;;;;;;5136870;28;20200;-78
2021/03/13 05:53:49;;;;;;;3.42;3.22;;;5.20;99.90;;;;;;5135922;28;20221;-80
2021/03/13 05:56:15;;;;;;;2.80;2.55;;;5.30;99.90;;;;;;5137254;28;20197;-79
2021/03/13 05:58:42;;;;;;;2.65;2.45;;;5.30;99.90;;;;;;5131266;28;20336;-81
2021/03/13 06:01:08;;;;;;;3.03;2.72;;;5.30;99.90;;;;;;5120801;28;20217;-80
2021/03/13 06:03:34;;;;;;;2.42;2.30;;;5.30;99.90;;;;;;5120530;28;20228;-80
2021/03/13 06:06:01;;;;;;;2.63;2.45;;;5.40;99.90;;;;;;5120323;28;20574;-80
2021/03/13 06:08:28;;;;;;;3.50;2.70;;;5.50;99.90;;;;;;5119434;28;20571;-80
2021/03/13 06:10:56;;;;;;;3.75;2.30;;;5.50;99.90;;;;;;5120553;28;20474;-80
2021/03/13 06:13:22;;;;;;;4.05;2.53;;;5.50;99.90;;;;;;5120592;28;20510;-80
2021/03/13 06:15:49;;;;;;;2.92;2.72;;;5.60;99.90;;;;;;5125247;28;20205;-80
2021/03/13 06:18:15;;;;;;;3.60;2.47;;;5.70;99.90;;;;;;5120075;28;20216;-80
2021/03/13 06:20:41;;;;;;;2.95;2.28;;;5.60;99.90;;;;;;5120689;28;20274;-80
2021/03/13 06:23:13;;;;;;;2.92;2.70;;;5.60;99.90;;;;;;5122195;28;20257;-81
2021/03/13 06:25:40;;;;;;;3.58;2.22;;;5.60;99.90;;;;;;5121619;28;20271;-81
2021/03/13 06:28:10;;;;;;;3.65;3.15;;;5.50;99.90;;;;;;5121342;28;20200;-79
2021/03/13 06:30:38;;;;;;;4.80;2.35;;;5.60;99.90;;;;;;5121211;28;20197;-80
2021/03/13 06:33:30;;;;;;;3.70;2.25;;;5.70;99.90;;;;;;5120870;28;20205;-80
2021/03/13 06:35:57;;;;;;;2.05;1.90;;;5.70;99.90;;;;;;5131295;28;20185;-78
2021/03/13 06:38:24;;;;;;;6.03;2.90;;;5.70;99.90;;;;;;5129052;28;20201;-80
2021/03/13 06:40:52;;;;;;;3.87;2.50;;;5.80;99.90;;;;;;5119791;28;20454;-79
2021/03/13 06:43:23;;;;;;;5.38;2.80;;;5.70;99.90;;;;;;5119982;28;20504;-82
2021/03/13 06:45:54;;;;;;;3.35;3.08;;;5.80;99.90;;;;;;5119548;28;20189;-81
2021/03/13 06:48:29;;;;;;;2.53;2.22;;;6.00;99.90;;;;;;5121181;28;20206;-79
2021/03/13 06:51:18;;;;;;;2.92;2.65;;;6.00;99.90;;;;;;5120668;28;20196;-80
2021/03/13 06:53:46;;;;;;;4.05;2.65;;;6.20;99.90;;;;;;5120332;28;20221;-80
2021/03/13 06:56:13;;;;;;;2.47;2.03;;;6.20;99.90;;;;;;5122518;28;20679;-79
2021/03/13 06:58:41;;;;;;;2.55;2.35;;;6.30;99.90;;;;;;5119053;28;20239;-80
2021/03/13 07:01:08;;;;;;;2.92;2.30;;;6.40;99.90;;;;;;5120011;28;20217;-79
2021/03/13 07:03:48;;;;;;;6.50;2.45;;;6.50;99.90;;;;;;5119458;28;20217;-80
2021/03/13 07:06:16;;;;;;;4.05;2.00;;;6.40;99.90;;;;;;5120487;28;20218;-81
2021/03/13 07:08:44;;;;;;;3.47;2.30;;;6.50;99.90;;;;;;5119547;28;20545;-80
2021/03/13 07:11:16;;;;;;;2.13;1.92;;;6.50;99.90;;;;;;5119353;28;20201;-80
2021/03/13 07:13:44;;;;;;;5.07;2.90;;;6.50;99.90;;;;;;5119556;28;20259;-80
2021/03/13 07:16:28;;;;;;;2.67;2.47;;;6.70;99.90;;;;;;5119388;28;20205;-81
2021/03/13 07:18:56;;;;;;;2.33;2.13;;;6.70;99.90;;;;;;5120617;28;20208;-80
2021/03/13 07:21:23;;;;;;;4.30;2.70;;;6.80;99.90;;;;;;5137438;28;20227;-78
2021/03/13 07:23:53;;;;;;;3.20;2.60;;;6.70;99.90;;;;;;5138453;28;20221;-78
2021/03/13 07:26:23;;;;;;;3.88;2.80;;;6.70;99.90;;;;;;5134199;28;20250;-79
2021/03/13 07:28:50;;;;;;;2.80;2.60;;;6.70;99.90;;;;;;5125158;28;20204;-80
2021/03/13 07:31:19;;;;;;;5.03;2.80;;;6.70;99.90;;;;;;5120176;28;20296;-80
2021/03/13 07:33:47;;;;;;;2.97;2.78;;;6.70;99.90;;;;;;5123159;28;20568;-79
2021/03/13 07:36:17;;;;;;;3.85;2.65;;;6.70;99.90;;;;;;5130931;28;20702;-81
2021/03/13 07:38:45;;;;;;;2.50;2.30;;;6.70;99.90;;;;;;5135620;28;20235;-79
2021/03/13 07:41:15;;;;;;;3.35;2.40;;;6.70;99.90;;;;;;5125196;28;20227;-79
2021/03/13 07:43:42;;;;;;;3.42;3.13;;;6.60;99.90;;;;;;5118955;28;20252;-81
2021/03/13 07:46:10;;;;;;;3.45;2.90;;;6.90;99.90;;;;;;5119204;28;20187;-81
2021/03/13 07:48:37;;;;;;;3.88;2.42;;;6.60;99.90;;;;;;5119808;28;20197;-80
2021/03/13 07:51:03;;;;;;;3.03;2.53;;;6.50;99.90;;;;;;5118700;28;20204;-79
2021/03/13 07:53:32;;;;;;;5.85;2.63;;;6.50;99.90;;;;;;5118346;28;20594;-79
2021/03/13 07:55:59;;;;;;;3.53;3.22;;;6.50;99.90;;;;;;5121104;28;20201;-79
2021/03/13 07:58:25;;;;;;;4.35;3.05;;;6.40;99.90;;;;;;5122032;28;20201;-80
2021/03/13 08:00:53;;;;;;;3.80;2.60;;;6.30;99.90;;;;;;5126055;28;20222;-80
2021/03/13 08:03:43;;;;;;;3.45;3.25;;;6.20;99.90;;;;;;5136659;28;20276;-79
2021/03/13 08:06:10;;;;;;;4.63;2.80;;;6.40;99.90;;;;;;5137076;28;20193;-78
2021/03/13 08:08:39;;;;;;;3.65;3.35;;;6.50;99.90;;;;;;5137226;28;20656;-80
2021/03/13 08:11:06;;;;;;;3.58;3.22;;;6.40;99.90;;;;;;5136168;28;20268;-79
2021/03/13 08:13:59;;;;;;;3.50;3.20;;;6.50;99.90;;;;;;5135307;28;20220;-80
2021/03/13 08:16:41;;;;;;;4.25;3.85;;;6.60;99.90;;;;;;5137027;28;20173;-79
2021/03/13 08:19:37;;;;;;;4.25;3.10;;;6.60;99.90;;;;;;5136077;28;20213;-80
2021/03/13 08:22:18;;;;;;;5.20;3.35;;;6.60;99.90;;;;;;5134308;28;20264;-78
2021/03/13 08:24:47;;;;;;;5.43;4.07;;;6.60;99.90;;;;;;5134251;28;20208;-80
2021/03/13 08:27:29;;;;;;;4.20;3.40;;;6.40;99.90;;;;;;5133821;28;20488;-78
2021/03/13 08:29:58;;;;;;;6.07;3.30;;;6.40;99.90;;;;;;5117202;28;20542;-79
2021/03/13 08:33:03;;;;;;;5.15;4.38;;;6.20;99.90;;;;;;5133725;28;20235;-78
2021/03/13 08:35:47;;;;;;;4.00;3.63;;;6.20;99.90;;;;;;5129755;28;20248;-80
2021/03/13 08:38:16;;;;;;;5.53;3.45;;;6.40;99.90;;;;;;5134881;28;20185;-78
2021/03/13 08:40:53;;;;;;;4.72;4.20;;;6.40;99.90;;;;;;5133579;28;20212;-77
2021/03/13 08:43:36;;;;;;;3.67;3.38;;;6.10;99.90;;;;;;5135048;28;20205;-80
2021/03/13 08:46:06;;;;;;;3.72;3.35;;;6.50;99.90;;;;;;5127412;28;20215;-80
2021/03/13 08:48:57;;;;;;;3.20;2.90;;;6.40;99.90;;;;;;5131179;28;20539;-79
2021/03/13 08:51:25;;;;;;;7.68;4.10;;;6.40;99.90;;;;;;5133007;28;20204;-78
2021/03/13 08:53:56;;;;;;;5.60;4.13;;;6.20;99.90;;;;;;5133019;28;20239;-79
2021/03/13 08:56:47;;;;;;;7.45;5.20;;;6.10;99.90;;;;;;5133291;28;20201;-81
2021/03/13 08:59:20;;;;;;;4.45;4.05;;;6.40;99.90;;;;;;5133190;28;20201;-79
2021/03/13 09:02:17;;;;;;;;;;;;;;;;;;;;;
2021/03/13 09:04:46;;;;;;;4.20;3.80;;;6.50;99.90;;;;;;5131927;28;20259;-80
2021/03/13 09:07:16;;;;;;;5.45;3.70;;;6.10;99.90;;;;;;5127431;28;20288;-80
2021/03/13 09:09:47;;;;;;;4.70;4.30;;;6.50;99.90;;;;;;5119289;28;20292;-79
2021/03/13 09:12:18;;;;;;;5.47;4.00;;;6.50;99.90;;;;;;5118831;28;20205;-81
2021/03/13 09:14:46;;;;;;;3.72;3.33;;;6.40;99.90;;;;;;5119068;28;20225;-80
2021/03/13 09:17:14;;;;;;;4.13;3.72;;;6.50;99.90;;;;;;5123537;28;20207;-79
2021/03/13 09:19:43;;;;;;;6.60;4.68;;;6.50;99.90;;;;;;5131468;28;20201;-80
2021/03/13 09:22:11;;;;;;;6.20;4.45;;;6.10;99.90;;;;;;5132285;28;20242;-80
2021/03/13 09:24:47;;;;;;;3.63;3.30;;;6.30;99.90;;;;;;5133228;28;20228;-80
2021/03/13 09:27:13;;;;;;;4.72;3.90;;;6.40;99.90;;;;;;5133239;28;20181;-77
2021/03/13 09:29:42;;;;;;;5.70;4.47;;;6.10;99.90;;;;;;5133753;28;20205;-81
2021/03/13 09:32:16;;;;;;;5.40;4.30;;;6.40;99.90;;;;;;5133551;28;20201;-80
2021/03/13 09:34:49;;;;;;;4.85;4.43;;;6.40;99.90;;;;;;5134765;28;20197;-81
2021/03/13 09:37:23;;;;;;;6.85;4.20;;;6.40;99.90;;;;;;5135483;28;20193;-80
2021/03/13 09:39:51;;;;;;;4.88;4.47;;;6.50;99.90;;;;;;5132353;28;20244;-79
2021/03/13 09:42:22;;;;;;;4.13;3.83;;;6.40;99.90;;;;;;5131540;28;20228;-80
2021/03/13 09:44:50;;;;;;;4.70;4.10;;;6.50;99.90;;;;;;5130973;28;20232;-81
2021/03/13 09:47:19;;;;;;;7.90;4.05;;;6.50;99.90;;;;;;5126443;28;20197;-80
2021/03/13 09:49:46;;;;;;;5.22;4.50;;;6.60;99.90;;;;;;5126297;28;20223;-81
2021/03/13 09:52:13;;;;;;;4.78;4.03;;;6.60;99.90;;;;;;5133050;28;20197;-81
2021/03/13 09:54:43;;;;;;;5.35;3.45;;;6.60;99.90;;;;;;5132154;28;20224;-82
2021/03/13 09:57:14;;;;;;;4.88;3.25;;;6.70;99.90;;;;;;5131875;28;20201;-80
2021/03/13 09:59:45;;;;;;;3.05;2.80;;;6.90;99.90;;;;;;5128509;28;20598;-81
2021/03/13 10:02:13;;;;;;;3.33;3.03;;;6.80;99.90;;;;;;5123825;28;20220;-81
2021/03/13 10:04:39;;;;;;;5.25;3.67;;;6.80;99.90;;;;;;5122643;28;20221;-80
2021/03/13 10:07:05;;;;;;;3.60;3.20;;;6.80;99.90;;;;;;5122021;28;20201;-81
2021/03/13 10:09:31;;;;;;;5.85;3.90;;;6.80;99.90;;;;;;5123099;28;20200;-79
2021/03/13 10:12:07;;;;;;;4.28;3.85;;;6.60;99.90;;;;;;5126108;28;20197;-82
2021/03/13 10:14:39;;;;;;;4.90;3.88;;;6.90;99.90;;;;;;5134503;28;20217;-78
2021/03/13 10:17:06;;;;;;;2.95;2.70;;;7.00;99.90;;;;;;5128882;28;20203;-80
2021/03/13 10:19:37;;;;;;;6.20;3.65;;;6.90;99.90;;;;;;5121687;28;20208;-80
2021/03/13 10:22:15;;;;;;;3.80;3.10;;;6.90;99.90;;;;;;5121123;28;20217;-79
2021/03/13 10:24:43;;;;;;;7.47;3.30;;;7.50;99.90;;;;;;5121936;28;20229;-80
2021/03/13 10:27:10;;;;;;;2.78;2.58;;;7.10;99.90;;;;;;5120933;28;20277;-80
2021/03/13 10:29:36;;;;;;;2.60;2.40;;;7.20;99.90;;;;;;5120848;28;20201;-80
2021/03/13 10:32:04;;;;;;;3.85;2.88;;;7.30;99.90;;;;;;5120896;28;20310;-82
2021/03/13 10:34:35;;;;;;;5.13;2.20;;;7.30;99.90;;;;;;5120686;28;20224;-80
2021/03/13 10:37:01;;;;;;;2.10;1.90;;;7.20;99.90;;;;;;5121158;28;20216;-79
2021/03/13 10:39:27;;;;;;;3.00;2.20;;;7.40;99.90;;;;;;5121628;28;20200;-80
2021/03/13 10:41:56;;;;;;;4.07;2.33;;;7.40;99.90;;;;;;5125175;28;20212;-79
2021/03/13 10:44:23;;;;;;;2.90;2.65;;;7.40;99.90;;;;;;5133761;28;20288;-78
2021/03/13 10:46:49;;;;;;;3.08;2.75;;;7.50;99.90;;;;;;5136980;28;20208;-78
2021/03/13 10:49:25;;;;;;;2.55;2.35;;;7.60;99.90;;;;;;5137371;28;20200;-78
2021/03/13 10:51:53;;;;;;;1.92;1.73;;;7.50;99.90;;;;;;5134198;28;20185;-78
2021/03/13 10:54:21;;;;;;;4.13;2.58;;;7.50;99.90;;;;;;5134002;28;20221;-78
2021/03/13 10:56:47;;;;;;;3.60;2.28;;;7.50;99.90;;;;;;5135411;28;20208;-78
2021/03/13 10:59:13;;;;;;;4.20;3.80;;;7.60;99.90;;;;;;5134989;28;20201;-78
2021/03/13 11:01:44;;;;;;;2.90;2.22;;;7.60;99.90;;;;;;5134647;28;20224;-78
2021/03/13 11:04:10;;;;;;;2.05;1.95;;;7.50;99.90;;;;;;5133807;28;20249;-79
2021/03/13 11:06:37;;;;;;;1.98;1.77;;;8.00;99.90;;;;;;5132669;28;20205;-80
2021/03/13 11:09:04;;;;;;;2.60;2.40;;;7.70;99.90;;;;;;5119305;28;20682;-80
2021/03/13 11:11:31;;;;;;;3.00;2.70;;;7.70;99.90;;;;;;5119030;28;20231;-80
2021/03/13 11:13:57;;;;;;;6.25;4.50;;;7.80;99.90;;;;;;5118299;28;20221;-81
2021/03/13 11:16:24;;;;;;;6.22;4.57;;;8.00;99.90;;;;;;5120144;28;20205;-80
2021/03/13 11:18:50;;;;;;;1.92;1.80;;;7.90;99.90;;;;;;5120225;28;20197;-79
2021/03/13 11:21:17;;;;;;;4.63;2.35;;;7.90;99.90;;;;;;5119918;28;20212;-79
2021/03/13 11:23:44;;;;;;;3.35;3.05;;;8.00;99.90;;;;;;5119823;28;20216;-79
2021/03/13 11:26:13;;;;;;;2.80;2.60;;;8.10;99.90;;;;;;5126016;28;20208;-78
2021/03/13 11:28:40;;;;;;;2.25;1.48;;;8.20;99.90;;;;;;5134103;28;20201;-79
2021/03/13 11:31:06;;;;;;;1.50;1.40;;;8.20;99.90;;;;;;5126298;28;20215;-80
2021/03/13 11:33:32;;;;;;;1.85;1.75;;;8.20;99.90;;;;;;5121019;28;20251;-80
2021/03/13 11:35:59;;;;;;;1.70;1.60;;;8.30;99.90;;;;;;5121801;28;20205;-81
2021/03/13 11:38:25;;;;;;;2.05;1.38;;;8.40;99.90;;;;;;5119938;28;20212;-79
2021/03/13 11:40:52;;;;;;;1.50;1.40;;;8.40;99.90;;;;;;5120243;28;20220;-79
2021/03/13 11:43:18;;;;;;;3.75;1.90;;;8.40;99.90;;;;;;5123252;28;20221;-79
2021/03/13 11:45:44;;;;;;;1.63;1.52;;;8.50;99.90;;;;;;5133200;22;20309;-80
2021/03/13 11:48:10;;;;;;;2.33;2.13;;;8.70;99.90;;;;;;5118363;28;20209;-80
2021/03/13 11:50:37;;;;;;;2.03;1.93;;;8.90;99.90;;;;;;5118232;28;20193;-81
2021/03/13 11:53:03;;;;;;;3.67;3.45;;;9.20;99.90;;;;;;5119287;28;20447;-81
2021/03/13 11:55:29;;;;;;;2.67;2.35;;;9.20;99.90;;;;;;5120149;28;20221;-80
2021/03/13 11:57:56;;;;;;;2.23;1.80;;;9.30;99.90;;;;;;5123720;28;20197;-79
2021/03/13 12:00:23;;;;;;;1.70;1.60;;;9.30;99.90;;;;;;5129226;28;20443;-80
2021/03/13 12:02:49;;;;;;;1.80;1.70;;;9.30;99.90;;;;;;5129962;28;20438;-81
2021/03/13 12:05:18;;;;;;;2.07;1.37;;;9.40;99.90;;;;;;5126984;28;20437;-80
2021/03/13 12:07:45;;;;;;;1.70;1.60;;;9.50;99.90;;;;;;5120803;28;20492;-81
2021/03/13 12:10:11;;;;;;;2.27;1.97;;;9.70;99.90;;;;;;5120545;28;20443;-80
2021/03/13 12:12:38;;;;;;;3.70;2.97;;;9.60;99.90;;;;;;5120833;28;20417;-80
2021/03/13 12:15:08;;;;;;;2.10;1.80;;;10.30;99.90;;;;;;5120063;28;20466;-80
2021/03/13 12:17:34;;;;;;;2.80;2.60;;;9.90;99.90;;;;;;5119621;28;20811;-81
2021/03/13 12:20:00;;;;;;;2.37;2.27;;;10.00;99.90;;;;;;5119922;28;20461;-81
2021/03/13 12:22:27;;;;;;;2.90;2.57;;;10.10;99.90;;;;;;5119380;28;20825;-80
2021/03/13 12:24:53;;;;;;;7.80;1.80;;;10.10;99.90;;;;;;5118386;28;20441;-80
2021/03/13 12:27:20;;;;;;;2.10;1.90;;;10.00;99.90;;;;;;5118931;28;20972;-81
2021/03/13 12:29:46;;;;;;;1.83;1.40;;;10.00;99.90;;;;;;5118685;28;20475;-81
2021/03/13 12:32:13;;;;;;;2.80;1.30;;;10.10;99.90;;;;;;5117759;28;20445;-81
2021/03/13 12:34:39;;;;;;;1.97;1.53;;;10.30;99.90;;;;;;5118999;28;20250;-81
2021/03/13 12:37:06;;;;;;;1.40;1.30;;;10.30;99.90;;;;;;5119657;28;20446;-81
2021/03/13 12:39:32;;;;;;;2.40;1.70;;;10.40;99.90;;;;;;5118600;28;20446;-81
2021/03/13 12:41:59;;;;;;;1.30;1.20;;;10.30;99.90;;;;;;5118343;28;20453;-81
2021/03/13 12:44:25;;;;;;;4.37;1.10;;;10.30;99.90;;;;;;5127804;28;20463;-81
2021/03/13 12:46:52;;;;;;;1.33;1.23;;;10.30;99.90;;;;;;5125652;28;20413;-81
2021/03/13 12:49:19;;;;;;;2.20;1.50;;;10.40;99.90;;;;;;5118170;28;20417;-80
2021/03/13 12:51:45;;;;;;;1.50;1.40;;;10.50;99.90;;;;;;5118218;28;20452;-80
2021/03/13 12:54:11;;;;;;;2.00;1.50;;;10.70;99.90;;;;;;5118146;28;20893;-80
2021/03/13 12:56:37;;;;;;;1.37;1.30;;;10.70;99.90;;;;;;5117651;28;20447;-80
2021/03/13 12:59:04;;;;;;;1.83;1.20;;;10.70;99.90;;;;;;5119292;28;20458;-81
2021/03/13 13:01:33;;;;;;;3.03;2.83;;;10.80;99.90;;;;;;5119341;28;20482;-82
2021/03/13 13:04:00;;;;;;;3.07;1.70;;;10.70;99.90;;;;;;5119085;28;20496;-81
2021/03/13 13:06:27;;;;;;;3.23;1.43;;;10.70;99.90;;;;;;5117170;28;20453;-81